createdAt,value
2022-09-06T09:03:21.577Z,984.96
2022-09-06T09:04:22.453Z,984.91
2022-09-06T09:05:23.341Z,984.91
2022-09-06T09:06:22.468Z,984.93
2022-09-06T09:07:22.522Z,984.92
2022-09-06T09:08:22.623Z,984.90
2022-09-06T09:09:22.449Z,984.91
2022-09-06T09:10:22.429Z,984.91
2022-09-06T09:11:22.454Z,984.91
2022-09-06T09:12:22.403Z,984.87
2022-09-06T09:13:22.444Z,984.86
2022-09-06T09:14:22.382Z,984.81
2022-09-06T09:15:22.398Z,984.79
2022-09-06T09:16:22.505Z,984.80
2022-09-06T09:17:22.302Z,984.81
2022-09-06T09:18:22.344Z,984.81
2022-09-06T09:19:22.241Z,984.78
2022-09-06T09:20:23.796Z,984.74
2022-09-06T09:21:24.703Z,984.77
2022-09-06T09:22:22.094Z,984.82
2022-09-06T09:23:22.102Z,984.78
2022-09-06T09:24:22.073Z,984.80
2022-09-06T09:25:21.966Z,984.82
2022-09-06T09:26:22.032Z,984.80
2022-09-06T09:27:21.911Z,984.81
2022-09-06T09:28:21.852Z,984.82
2022-09-06T09:29:27.478Z,984.77
2022-09-06T09:31:21.834Z,984.74
2022-09-06T09:32:21.672Z,984.71
2022-09-06T12:21:54.994Z,983.60
2022-09-06T12:22:55.981Z,983.61
2022-09-06T12:23:55.934Z,983.58
2022-09-06T12:24:55.925Z,983.56
2022-09-06T12:25:55.901Z,983.51
2022-09-06T12:26:56.138Z,983.54
2022-09-06T12:27:55.867Z,983.54
2022-09-06T12:28:55.761Z,983.55
2022-09-06T12:29:55.712Z,983.58
2022-09-06T12:30:55.707Z,983.59
2022-09-06T12:31:55.601Z,983.54
2022-09-06T12:32:55.541Z,983.54
2022-09-06T12:33:55.473Z,983.56
2022-09-06T12:36:55.240Z,983.58
2022-09-06T12:37:55.157Z,983.61
2022-09-06T12:38:55.090Z,983.57
2022-09-06T12:39:55.122Z,983.54
2022-09-06T12:40:54.926Z,983.57
2022-09-06T12:41:54.836Z,983.58
2022-09-06T12:42:54.743Z,983.52
2022-09-06T12:43:54.671Z,983.55
2022-09-06T12:44:54.602Z,983.55
2022-09-06T12:45:54.505Z,983.49
2022-09-06T12:46:54.442Z,983.54
2022-09-06T12:47:54.341Z,983.51
2022-09-06T12:48:54.262Z,983.55
2022-09-06T12:49:54.162Z,983.55
2022-09-06T12:50:54.098Z,983.52
2022-09-06T12:51:54.041Z,983.54
2022-09-06T12:52:53.908Z,983.52
2022-09-06T12:53:53.806Z,983.56
2022-09-06T12:54:53.724Z,983.58
2022-09-06T12:55:53.682Z,983.53
2022-09-06T12:56:53.580Z,983.53
2022-09-06T12:57:53.524Z,983.53
2022-09-06T12:58:53.425Z,983.50
2022-09-06T12:59:53.319Z,983.50
